Time;durP1;ratioP1;P1;durP2;ratioP2;P2;SDS_P1;SDS_P2;PMS_P1;PMS_P2;Temp;Humidity;BMP_temperature;BMP_pressure;BME280_temperature;BME280_humidity;BME280_pressure;Samples;Min_cycle;Max_cycle;Signal;HPM_P1;HPM_P2
2024/04/02 00:02:18;;;;;;;3.37;1.50;;;12.10;1.00;;;;;;5051452;28;20217;-65
2024/04/02 00:05:05;;;;;;;2.83;1.90;;;12.00;1.00;;;;;;5070426;28;20217;-66
2024/04/02 00:07:52;;;;;;;6.90;2.20;;;11.90;1.00;;;;;;5050306;28;20259;-66
2024/04/02 00:10:38;;;;;;;3.47;2.03;;;11.90;1.00;;;;;;5067382;28;20253;-66
2024/04/02 00:13:25;;;;;;;4.67;2.10;;;11.90;1.00;;;;;;5058612;28;20202;-66
2024/04/02 00:16:11;;;;;;;4.50;1.93;;;11.90;1.00;;;;;;5050017;28;20212;-66
2024/04/02 00:19:00;;;;;;;3.93;2.30;;;11.80;1.00;;;;;;5062676;28;20198;-66
2024/04/02 00:21:46;;;;;;;3.60;2.30;;;11.70;1.00;;;;;;5064932;28;20201;-66
2024/04/02 00:24:33;;;;;;;3.87;2.00;;;11.70;1.00;;;;;;5065394;28;20219;-66
2024/04/02 00:27:20;;;;;;;4.13;2.23;;;11.80;1.00;;;;;;5066060;28;20722;-66
2024/04/02 00:30:08;;;;;;;2.83;2.07;;;11.80;1.00;;;;;;5059251;28;20201;-65
2024/04/02 00:32:54;;;;;;;8.17;2.40;;;11.70;12.50;;;;;;5051392;28;20201;-66
2024/04/02 00:35:43;;;;;;;6.00;2.10;;;11.60;57.20;;;;;;5058032;28;20236;-66
2024/04/02 00:38:29;;;;;;;5.37;3.13;;;11.60;99.90;;;;;;5050360;28;20229;-66
2024/04/02 00:41:16;;;;;;;3.50;2.80;;;11.60;99.90;;;;;;5061067;28;20270;-66
2024/04/02 00:44:03;;;;;;;3.47;2.37;;;11.60;99.90;;;;;;5061816;28;20687;-66
2024/04/02 00:46:50;;;;;;;3.37;2.73;;;11.50;99.90;;;;;;5064104;28;20215;-66
2024/04/02 00:49:36;;;;;;;5.67;3.53;;;11.50;99.90;;;;;;5067335;28;20279;-66
2024/04/02 00:52:25;;;;;;;6.70;3.70;;;11.40;99.90;;;;;;5057172;28;20232;-66
2024/04/02 00:55:11;;;;;;;6.63;4.90;;;11.40;99.90;;;;;;5057313;28;20282;-66
2024/04/02 00:57:58;;;;;;;7.90;5.90;;;11.50;1.00;;;;;;5067921;28;20211;-66
2024/04/02 01:00:45;;;;;;;5.90;5.10;;;11.40;1.00;;;;;;5051490;28;20207;-66
2024/04/02 01:03:32;;;;;;;7.57;6.77;;;11.50;1.00;;;;;;5052404;28;20204;-66
2024/04/02 01:06:19;;;;;;;9.77;7.50;;;11.40;1.00;;;;;;5053050;28;20234;-67
2024/04/02 01:09:07;;;;;;;14.43;8.57;;;11.40;1.00;;;;;;5057593;28;20232;-66
2024/04/02 01:11:54;;;;;;;17.43;9.77;;;11.30;1.00;;;;;;5056420;28;20215;-66
2024/04/02 01:14:41;;;;;;;13.93;8.83;;;11.20;1.00;;;;;;5065453;28;20223;-66
2024/04/02 01:17:28;;;;;;;14.90;11.10;;;11.20;29.50;;;;;;5067499;28;20188;-66
2024/04/02 01:20:14;;;;;;;12.67;9.90;;;11.00;99.90;;;;;;5062929;28;20282;-66
2024/04/02 01:23:01;;;;;;;11.50;8.73;;;11.00;1.00;;;;;;5059785;28;20580;-66
2024/04/02 01:25:49;;;;;;;12.23;8.57;;;11.00;99.90;;;;;;5056064;28;20661;-66
2024/04/02 01:28:36;;;;;;;13.17;10.37;;;10.90;1.00;;;;;;5066357;28;20653;-66
2024/04/02 01:31:22;;;;;;;15.90;11.93;;;10.80;99.90;;;;;;5077205;28;20203;-66
2024/04/02 01:34:10;;;;;;;10.63;6.27;;;10.60;11.60;;;;;;5049217;28;20334;-65
2024/04/02 01:36:56;;;;;;;15.37;10.63;;;10.40;99.90;;;;;;5052598;28;20195;-65
2024/04/02 01:39:43;;;;;;;19.93;13.50;;;10.40;99.90;;;;;;5050135;28;20232;-65
2024/04/02 01:42:31;;;;;;;13.07;8.83;;;10.30;1.00;;;;;;5057929;28;20212;-65
2024/04/02 01:45:18;;;;;;;18.33;13.00;;;10.20;99.90;;;;;;5049378;28;20447;-65
2024/04/02 01:48:05;;;;;;;18.83;14.23;;;10.20;1.00;;;;;;5062880;28;20227;-65
2024/04/02 01:50:52;;;;;;;16.53;10.80;;;10.10;99.90;;;;;;5050112;28;20616;-65
2024/04/02 01:53:38;;;;;;;17.70;12.77;;;10.10;1.00;;;;;;5058542;28;20200;-65
2024/04/02 01:56:26;;;;;;;15.80;11.97;;;10.00;1.00;;;;;;5049114;28;20559;-65
2024/04/02 01:59:13;;;;;;;32.40;10.63;;;10.00;99.90;;;;;;5049171;28;20206;-65
2024/04/02 02:02:01;;;;;;;13.13;10.17;;;10.00;99.90;;;;;;5048896;28;20263;-65
2024/04/02 02:04:47;;;;;;;15.07;10.40;;;9.90;1.00;;;;;;5053886;28;20196;-64
2024/04/02 02:07:34;;;;;;;10.10;7.07;;;9.80;1.00;;;;;;5052879;28;20605;-64
2024/04/02 02:10:20;;;;;;;13.27;10.30;;;9.90;11.30;;;;;;5066270;28;20230;-65
2024/04/02 02:13:08;;;;;;;12.93;8.17;;;9.80;57.50;;;;;;5053683;28;20293;-64
2024/04/02 02:15:59;;;;;;;14.40;10.40;;;9.80;80.80;;;;;;5071641;28;20218;-64
2024/04/02 02:18:46;;;;;;;17.20;8.90;;;9.70;78.30;;;;;;5072592;28;20599;-65
2024/04/02 02:21:32;;;;;;;12.57;8.30;;;9.70;98.70;;;;;;5067265;28;20198;-64
2024/04/02 02:24:20;;;;;;;9.40;6.20;;;9.70;99.90;;;;;;5060981;28;20702;-65
2024/04/02 02:27:06;;;;;;;5.63;3.67;;;9.60;99.90;;;;;;5054821;28;20207;-65
2024/04/02 02:29:53;;;;;;;12.27;8.20;;;9.60;83.30;;;;;;5070335;28;20675;-65
2024/04/02 02:32:41;;;;;;;14.97;9.97;;;9.60;99.90;;;;;;5062920;28;20662;-64
2024/04/02 02:35:28;;;;;;;16.87;9.97;;;9.60;99.90;;;;;;5052717;28;20675;-64
2024/04/02 02:38:15;;;;;;;11.27;7.87;;;9.50;99.90;;;;;;5060256;28;20202;-64
2024/04/02 02:41:01;;;;;;;10.70;6.03;;;9.50;99.90;;;;;;5072338;28;20243;-64
2024/04/02 02:43:49;;;;;;;6.93;5.00;;;9.50;99.90;;;;;;5062065;28;20578;-65
2024/04/02 02:46:35;;;;;;;6.73;4.97;;;9.40;99.90;;;;;;5068395;28;20692;-65
2024/04/02 02:49:24;;;;;;;5.17;3.33;;;9.40;99.90;;;;;;5069729;28;20233;-65
2024/04/02 02:52:10;;;;;;;4.50;1.80;;;9.30;90.20;;;;;;5051723;28;20201;-65
2024/04/02 02:54:57;;;;;;;4.07;2.50;;;9.20;1.00;;;;;;5058004;28;20204;-64
2024/04/02 02:57:43;;;;;;;2.73;2.27;;;9.20;1.00;;;;;;5055474;28;20205;-65
2024/04/02 03:00:31;;;;;;;3.40;2.30;;;9.10;1.00;;;;;;5051540;28;20227;-65
2024/04/02 03:03:17;;;;;;;2.47;2.10;;;9.20;1.00;;;;;;5052447;28;20213;-65
2024/04/02 03:06:06;;;;;;;2.07;1.90;;;9.20;1.00;;;;;;5065137;28;20316;-65
2024/04/02 03:08:52;;;;;;;2.70;1.70;;;9.10;1.00;;;;;;5066394;28;20242;-65
2024/04/02 03:11:39;;;;;;;3.10;2.77;;;9.00;1.00;;;;;;5060740;28;20211;-65
2024/04/02 03:14:26;;;;;;;2.97;2.67;;;9.00;1.00;;;;;;5052641;28;20209;-65
2024/04/02 03:17:13;;;;;;;3.73;3.30;;;9.00;1.00;;;;;;5053467;28;20201;-66
2024/04/02 03:19:59;;;;;;;4.57;3.87;;;8.90;1.00;;;;;;5070642;28;20206;-65
2024/04/02 03:22:48;;;;;;;6.63;4.70;;;8.90;1.00;;;;;;5071572;28;20277;-65
2024/04/02 03:25:34;;;;;;;6.10;3.73;;;8.90;1.00;;;;;;5070504;28;20194;-65
2024/04/02 03:28:21;;;;;;;5.20;4.50;;;8.90;1.00;;;;;;5069762;28;20268;-65
2024/04/02 03:31:07;;;;;;;7.70;4.40;;;8.90;9.70;;;;;;5067711;28;20205;-65
2024/04/02 03:33:55;;;;;;;8.57;4.73;;;8.90;55.90;;;;;;5073601;28;20822;-66
2024/04/02 03:36:41;;;;;;;7.33;4.13;;;8.80;27.90;;;;;;5064722;28;20243;-65
2024/04/02 03:39:29;;;;;;;5.33;4.17;;;8.80;1.00;;;;;;5050693;28;20386;-65
2024/04/02 03:42:17;;;;;;;5.97;4.37;;;8.80;5.30;;;;;;5050084;28;20212;-65
2024/04/02 03:45:04;;;;;;;3.87;3.27;;;8.80;1.00;;;;;;5057257;28;20211;-65
2024/04/02 03:47:52;;;;;;;5.00;4.00;;;8.80;1.00;;;;;;5064895;28;20655;-66
2024/04/02 03:50:38;;;;;;;7.50;4.43;;;8.80;1.00;;;;;;5051537;28;20210;-65
2024/04/02 03:53:25;;;;;;;5.63;4.40;;;8.80;1.00;;;;;;5058675;28;20212;-65
2024/04/02 03:56:13;;;;;;;7.03;4.00;;;8.80;4.50;;;;;;5058885;28;20609;-65
2024/04/02 03:59:00;;;;;;;4.80;4.10;;;8.60;1.00;;;;;;5058378;28;21111;-66
2024/04/02 04:01:46;;;;;;;5.10;3.10;;;8.60;1.00;;;;;;5052423;28;20255;-65
2024/04/02 04:04:34;;;;;;;4.50;3.60;;;8.60;1.00;;;;;;5057058;28;20228;-65
2024/04/02 04:07:20;;;;;;;3.67;3.03;;;8.60;1.00;;;;;;5056008;28;20218;-65
2024/04/02 04:10:07;;;;;;;4.20;3.80;;;8.50;1.00;;;;;;5051151;28;20319;-65
2024/04/02 04:12:55;;;;;;;5.63;3.30;;;8.50;1.00;;;;;;5051676;28;20206;-66
2024/04/02 04:15:42;;;;;;;6.07;3.33;;;8.50;1.00;;;;;;5068971;28;20404;-65
2024/04/02 04:18:29;;;;;;;3.90;3.10;;;8.50;1.00;;;;;;5069301;28;20205;-65
2024/04/02 04:21:16;;;;;;;4.13;2.80;;;8.40;1.00;;;;;;5061448;28;20209;-65
2024/04/02 04:24:02;;;;;;;3.00;2.43;;;8.40;1.00;;;;;;5063364;28;20286;-65
2024/04/02 04:26:49;;;;;;;3.37;2.57;;;8.30;1.00;;;;;;5063505;28;20718;-65
2024/04/02 04:29:37;;;;;;;3.13;2.10;;;8.30;1.00;;;;;;5058776;28;20582;-65
2024/04/02 04:32:24;;;;;;;2.90;2.20;;;8.30;1.00;;;;;;5051058;28;20693;-65
2024/04/02 04:35:12;;;;;;;3.33;2.50;;;8.30;1.00;;;;;;5063578;28;20197;-65
2024/04/02 04:37:58;;;;;;;3.63;2.40;;;8.30;1.00;;;;;;5065556;28;20200;-65
2024/04/02 04:40:45;;;;;;;5.73;2.10;;;8.20;1.00;;;;;;5050274;28;20233;-66
2024/04/02 04:43:32;;;;;;;5.63;2.50;;;8.30;1.00;;;;;;5061876;28;20201;-65
2024/04/02 04:46:20;;;;;;;2.60;2.20;;;8.30;1.00;;;;;;5062728;28;20232;-65
2024/04/02 04:49:08;;;;;;;3.57;2.10;;;8.30;1.00;;;;;;5060768;28;20213;-65
2024/04/02 04:51:55;;;;;;;2.83;2.27;;;8.30;1.00;;;;;;5057410;28;20576;-65
2024/04/02 04:54:41;;;;;;;2.87;2.17;;;8.30;1.00;;;;;;5052235;28;20660;-65
2024/04/02 04:57:28;;;;;;;5.57;2.23;;;8.20;1.00;;;;;;5063441;28;20193;-65
2024/04/02 05:00:15;;;;;;;2.33;1.70;;;8.30;1.00;;;;;;5050006;28;20208;-65
2024/04/02 05:03:03;;;;;;;3.47;1.93;;;8.20;1.00;;;;;;5050190;28;20233;-64
2024/04/02 05:05:49;;;;;;;3.30;1.90;;;8.10;1.00;;;;;;5050708;28;20693;-65
2024/04/02 05:08:37;;;;;;;1.90;1.70;;;8.20;1.00;;;;;;5050036;28;20240;-65
2024/04/02 05:11:23;;;;;;;3.50;1.17;;;8.20;1.00;;;;;;5051029;28;20324;-65
2024/04/02 05:14:10;;;;;;;2.73;1.60;;;8.20;1.00;;;;;;5051975;28;20228;-65
2024/04/02 05:16:56;;;;;;;2.20;1.70;;;8.10;1.00;;;;;;5064992;28;20688;-65
2024/04/02 05:19:45;;;;;;;2.33;1.43;;;8.20;1.00;;;;;;5049802;28;20287;-66
2024/04/02 05:22:31;;;;;;;3.30;1.90;;;8.10;1.00;;;;;;5054937;28;20205;-65
2024/04/02 05:25:18;;;;;;;4.60;2.03;;;8.10;1.00;;;;;;5068926;28;20283;-66
2024/04/02 05:28:06;;;;;;;4.63;2.60;;;8.10;1.00;;;;;;5066704;28;20205;-65
2024/04/02 05:30:53;;;;;;;1.43;1.33;;;8.10;1.00;;;;;;5058025;28;20192;-66
2024/04/02 05:33:40;;;;;;;2.57;2.20;;;8.10;1.00;;;;;;5055984;28;20196;-65
2024/04/02 05:36:28;;;;;;;4.57;3.33;;;8.10;1.00;;;;;;5059772;28;20210;-65
2024/04/02 05:39:15;;;;;;;5.43;3.43;;;8.10;1.00;;;;;;5058030;28;20232;-66
2024/04/02 05:42:01;;;;;;;5.90;3.10;;;8.10;1.00;;;;;;5069011;28;20212;-66
2024/04/02 05:44:48;;;;;;;6.23;3.80;;;8.00;1.00;;;;;;5054931;28;20236;-66
2024/04/02 05:47:35;;;;;;;6.57;3.90;;;8.00;1.00;;;;;;5068588;28;20200;-65
2024/04/02 05:50:22;;;;;;;6.97;4.80;;;8.00;1.00;;;;;;5048559;28;20315;-66
2024/04/02 05:53:10;;;;;;;10.83;6.80;;;8.00;1.00;;;;;;5062675;28;20204;-65
2024/04/02 05:55:57;;;;;;;9.33;6.03;;;7.90;1.00;;;;;;5063253;28;20216;-66
2024/04/02 05:58:44;;;;;;;9.07;7.00;;;8.00;57.20;;;;;;5050016;28;20631;-67
2024/04/02 06:01:30;;;;;;;10.77;7.00;;;7.90;28.60;;;;;;5048682;28;20201;-67
2024/04/02 06:04:17;;;;;;;10.03;6.77;;;7.90;28.10;;;;;;5049327;28;20545;-67
2024/04/02 06:07:04;;;;;;;9.93;7.37;;;7.70;2.20;;;;;;5048310;28;20201;-67
2024/04/02 06:09:52;;;;;;;6.90;3.83;;;7.70;7.80;;;;;;5048012;28;20220;-66
2024/04/02 06:12:43;;;;;;;8.77;5.53;;;7.70;38.30;;;;;;5066205;28;20668;-66
2024/04/02 06:15:30;;;;;;;12.03;7.43;;;7.70;1.00;;;;;;5055070;28;20217;-66
2024/04/02 06:18:17;;;;;;;10.33;8.40;;;7.60;1.00;;;;;;5068691;28;20196;-66
2024/04/02 06:21:03;;;;;;;10.23;6.63;;;7.60;1.00;;;;;;5056561;28;20208;-67
2024/04/02 06:23:51;;;;;;;13.17;7.97;;;7.60;44.60;;;;;;5057507;28;20201;-66
2024/04/02 06:26:38;;;;;;;11.60;7.67;;;7.60;61.20;;;;;;5061529;28;20212;-67
2024/04/02 06:29:26;;;;;;;5.70;2.73;;;7.50;74.10;;;;;;5063316;28;20269;-66
2024/04/02 06:32:12;;;;;;;12.63;8.40;;;7.50;29.50;;;;;;5048515;28;21031;-66
2024/04/02 06:34:59;;;;;;;11.97;8.27;;;7.60;56.30;;;;;;5050017;28;20854;-66
2024/04/02 06:37:45;;;;;;;11.13;5.77;;;7.50;62.50;;;;;;5060978;28;20216;-66
2024/04/02 06:40:32;;;;;;;14.73;9.20;;;7.50;90.80;;;;;;5049016;28;20794;-66
2024/04/02 06:43:20;;;;;;;12.97;8.63;;;7.50;96.00;;;;;;5052993;28;20601;-66
2024/04/02 06:46:07;;;;;;;12.77;8.07;;;7.50;91.00;;;;;;5065984;28;20615;-68
2024/04/02 06:48:56;;;;;;;8.10;4.60;;;7.60;80.30;;;;;;5060624;28;20602;-66
2024/04/02 06:51:43;;;;;;;12.00;7.97;;;7.60;96.00;;;;;;5059375;28;20196;-66
2024/04/02 06:54:29;;;;;;;10.20;7.50;;;7.50;79.90;;;;;;5067626;28;20683;-67
2024/04/02 06:57:16;;;;;;;11.63;7.80;;;7.50;91.20;;;;;;5052837;28;20208;-67
2024/04/02 07:00:06;;;;;;;16.50;8.57;;;7.40;58.50;;;;;;5060926;28;20575;-67
2024/04/02 07:02:53;;;;;;;10.63;6.17;;;7.50;94.80;;;;;;5051669;28;20602;-66
2024/04/02 07:05:40;;;;;;;10.77;7.40;;;7.50;78.40;;;;;;5053659;28;20204;-66
2024/04/02 07:08:28;;;;;;;11.50;7.37;;;7.50;16.30;;;;;;5063617;28;20201;-67
2024/04/02 07:11:16;;;;;;;13.50;9.40;;;7.40;9.50;;;;;;5071329;28;20247;-67
2024/04/02 07:14:02;;;;;;;14.20;6.83;;;7.50;95.10;;;;;;5068066;28;20206;-67
2024/04/02 07:16:53;;;;;;;11.37;7.37;;;7.40;34.20;;;;;;5061374;28;20271;-66
2024/04/02 07:19:39;;;;;;;12.10;8.23;;;7.50;44.80;;;;;;5051982;28;20201;-66
2024/04/02 07:22:26;;;;;;;8.27;4.57;;;7.50;1.00;;;;;;5050534;28;20208;-67
2024/04/02 07:25:13;;;;;;;7.70;5.67;;;7.50;1.00;;;;;;5065800;28;20235;-67
2024/04/02 07:28:00;;;;;;;14.57;8.90;;;7.50;1.00;;;;;;5070239;28;20189;-66
2024/04/02 07:30:46;;;;;;;10.00;6.07;;;7.40;1.00;;;;;;5086752;28;20699;-66
2024/04/02 07:33:35;;;;;;;11.97;6.93;;;7.30;1.00;;;;;;5063136;28;20192;-66
2024/04/02 07:36:21;;;;;;;13.17;8.57;;;7.20;1.00;;;;;;5073263;28;20210;-66
2024/04/02 07:39:08;;;;;;;11.17;7.60;;;7.10;1.00;;;;;;5051719;28;20700;-67
2024/04/02 07:41:54;;;;;;;14.93;7.27;;;7.00;1.00;;;;;;5069686;28;20200;-67
2024/04/02 07:44:41;;;;;;;9.43;6.03;;;6.90;99.90;;;;;;5070456;28;20811;-66
2024/04/02 07:47:28;;;;;;;7.80;5.30;;;6.90;99.90;;;;;;5070362;28;20208;-66
2024/04/02 07:50:16;;;;;;;7.43;4.90;;;6.90;99.90;;;;;;5049879;28;20371;-66
2024/04/02 07:53:03;;;;;;;11.87;5.30;;;6.90;1.00;;;;;;5052255;28;20602;-66
2024/04/02 07:55:50;;;;;;;9.13;5.27;;;6.90;88.10;;;;;;5064131;28;20654;-67
2024/04/02 07:58:37;;;;;;;5.43;2.47;;;6.90;49.90;;;;;;5049772;28;20209;-66
2024/04/02 08:01:24;;;;;;;10.07;5.47;;;6.90;99.90;;;;;;5056280;28;20205;-66
2024/04/02 08:04:11;;;;;;;7.23;5.20;;;6.80;97.10;;;;;;5068299;28;20205;-67
2024/04/02 08:06:59;;;;;;;4.73;1.63;;;6.80;38.60;;;;;;5062439;28;20275;-66
2024/04/02 08:09:45;;;;;;;10.57;5.93;;;6.90;99.90;;;;;;5061589;28;20224;-66
2024/04/02 08:12:33;;;;;;;9.97;4.77;;;6.90;99.90;;;;;;5054144;28;20199;-66
2024/04/02 08:15:19;;;;;;;7.47;4.47;;;7.00;97.70;;;;;;5051172;28;20209;-68
2024/04/02 08:18:06;;;;;;;4.33;3.20;;;7.00;1.00;;;;;;5058825;28;20291;-67
2024/04/02 08:20:52;;;;;;;9.47;4.90;;;7.10;1.00;;;;;;5069358;28;20201;-66
2024/04/02 08:23:41;;;;;;;8.33;4.80;;;7.10;1.00;;;;;;5055793;28;20228;-67
2024/04/02 08:26:28;;;;;;;8.27;4.53;;;7.10;1.00;;;;;;5070089;28;20204;-66
2024/04/02 08:29:15;;;;;;;8.63;5.43;;;7.10;1.00;;;;;;5068777;28;20695;-66
2024/04/02 08:32:01;;;;;;;8.50;5.90;;;7.10;1.00;;;;;;5065336;28;20683;-68
2024/04/02 08:34:49;;;;;;;14.90;5.93;;;7.20;99.90;;;;;;5051463;28;20251;-66
2024/04/02 08:37:36;;;;;;;12.60;5.17;;;7.20;99.90;;;;;;5063604;28;20660;-66
2024/04/02 08:40:24;;;;;;;12.70;6.90;;;7.30;99.90;;;;;;5063524;28;20251;-66
2024/04/02 08:43:11;;;;;;;16.00;8.90;;;7.30;99.90;;;;;;5067098;28;20216;-66
2024/04/02 08:45:58;;;;;;;16.53;9.97;;;7.40;99.90;;;;;;5056670;28;20747;-66
2024/04/02 08:48:46;;;;;;;20.53;12.43;;;7.50;99.90;;;;;;5060413;28;20284;-66
2024/04/02 08:51:32;;;;;;;23.03;12.83;;;7.40;99.90;;;;;;5062940;28;20694;-66
2024/04/02 08:54:19;;;;;;;27.07;13.77;;;7.30;92.90;;;;;;5050240;28;20787;-67
2024/04/02 08:57:07;;;;;;;24.83;13.67;;;7.40;99.90;;;;;;5051074;28;20220;-66
2024/04/02 08:59:54;;;;;;;24.90;12.17;;;7.40;1.00;;;;;;5050775;28;20236;-66
2024/04/02 09:02:41;;;;;;;17.90;11.93;;;7.40;1.00;;;;;;5053858;28;20211;-66
2024/04/02 09:05:28;;;;;;;15.73;7.40;;;7.40;1.00;;;;;;5056819;28;20566;-67
2024/04/02 09:08:14;;;;;;;24.33;11.97;;;7.40;1.00;;;;;;5059105;28;20246;-66
2024/04/02 09:11:03;;;;;;;20.00;11.33;;;7.50;1.00;;;;;;5063792;28;20304;-66
2024/04/02 09:13:50;;;;;;;20.03;10.87;;;7.60;1.00;;;;;;5050233;28;20575;-66
2024/04/02 09:16:37;;;;;;;14.20;7.27;;;7.60;1.00;;;;;;5058102;28;20700;-66
2024/04/02 09:19:24;;;;;;;17.13;8.73;;;7.70;1.00;;;;;;5057014;28;20192;-67
2024/04/02 09:22:11;;;;;;;8.53;5.70;;;7.70;1.00;;;;;;5053827;28;20196;-66
2024/04/02 09:24:57;;;;;;;12.20;7.23;;;7.80;1.00;;;;;;5056619;28;20213;-67
2024/04/02 09:27:45;;;;;;;12.37;7.57;;;7.80;1.00;;;;;;5056828;28;20235;-66
2024/04/02 09:30:32;;;;;;;12.50;7.33;;;7.80;1.00;;;;;;5079418;28;20595;-66
2024/04/02 09:33:19;;;;;;;14.23;7.53;;;7.80;1.00;;;;;;5054220;28;20610;-66
2024/04/02 09:36:06;;;;;;;12.27;8.23;;;7.80;1.00;;;;;;5053630;28;20201;-66
2024/04/02 09:38:53;;;;;;;13.77;8.33;;;7.60;1.00;;;;;;5055731;28;20254;-66
2024/04/02 09:41:40;;;;;;;14.93;8.60;;;7.60;99.90;;;;;;5036310;28;20193;-66
2024/04/02 09:44:28;;;;;;;12.60;6.80;;;7.60;99.90;;;;;;5048326;28;20193;-66
2024/04/02 09:47:18;;;;;;;15.23;9.20;;;7.60;99.90;;;;;;5036448;28;20201;-66
2024/04/02 09:50:06;;;;;;;21.40;9.43;;;7.60;99.90;;;;;;5048513;28;20806;-66
2024/04/02 09:52:52;;;;;;;15.27;9.43;;;7.60;99.90;;;;;;5032853;28;20201;-66
2024/04/02 09:55:40;;;;;;;19.03;10.23;;;7.70;99.90;;;;;;5041566;28;20197;-66
2024/04/02 09:58:27;;;;;;;10.33;7.27;;;7.70;99.90;;;;;;5040217;28;20208;-66
2024/04/02 10:01:14;;;;;;;12.20;7.10;;;7.70;99.90;;;;;;5045404;28;20219;-66
2024/04/02 10:04:05;;;;;;;22.30;11.77;;;7.70;99.90;;;;;;5034766;28;20214;-66
2024/04/02 10:06:56;;;;;;;19.80;12.37;;;7.70;99.90;;;;;;5030298;28;20265;-66
2024/04/02 10:09:44;;;;;;;17.87;11.10;;;7.70;99.90;;;;;;5030350;28;20225;-66
2024/04/02 10:12:31;;;;;;;21.00;10.97;;;7.80;1.00;;;;;;5045742;28;20685;-66
2024/04/02 10:15:18;;;;;;;9.37;5.77;;;7.80;1.00;;;;;;5043568;28;20319;-67
2024/04/02 10:18:05;;;;;;;19.40;12.17;;;7.80;1.00;;;;;;5029582;28;20202;-67
2024/04/02 10:21:00;;;;;;;20.53;12.53;;;7.90;1.00;;;;;;5048154;28;20761;-67
2024/04/02 10:23:46;;;;;;;25.70;11.37;;;7.90;1.00;;;;;;5036431;28;20204;-67
2024/04/02 10:26:34;;;;;;;16.97;8.27;;;7.90;1.00;;;;;;5039047;28;20202;-69
2024/04/02 10:29:27;;;;;;;20.97;12.20;;;8.00;1.00;;;;;;5050370;28;20680;-67
2024/04/02 10:32:15;;;;;;;23.97;12.27;;;8.00;1.00;;;;;;5044266;28;20206;-67
2024/04/02 10:35:01;;;;;;;20.63;11.97;;;8.00;1.00;;;;;;5035887;28;20901;-66
2024/04/02 10:37:51;;;;;;;17.47;10.90;;;8.00;1.00;;;;;;5053861;28;20196;-67
2024/04/02 10:40:37;;;;;;;22.03;13.17;;;8.00;1.00;;;;;;5052953;28;20700;-67
2024/04/02 10:43:24;;;;;;;23.40;12.83;;;8.00;1.00;;;;;;5059356;28;20203;-66
2024/04/02 10:46:10;;;;;;;25.33;12.77;;;8.00;1.00;;;;;;5057441;28;20212;-67
2024/04/02 10:48:59;;;;;;;21.43;13.20;;;8.00;1.00;;;;;;5062640;28;20201;-67
2024/04/02 10:51:45;;;;;;;23.17;13.50;;;7.90;1.00;;;;;;5064344;28;20196;-67
2024/04/02 10:54:34;;;;;;;23.57;14.03;;;8.00;1.00;;;;;;5052749;28;20235;-66
2024/04/02 10:57:21;;;;;;;24.70;16.77;;;7.80;1.00;;;;;;5053065;28;20206;-66
2024/04/02 11:00:09;;;;;;;25.20;16.93;;;7.80;1.00;;;;;;5052871;28;20197;-66
2024/04/02 11:02:55;;;;;;;25.93;16.87;;;7.90;1.00;;;;;;5051803;28;20265;-67
2024/04/02 11:05:42;;;;;;;26.30;15.50;;;7.90;1.00;;;;;;5065427;28;20239;-66
2024/04/02 11:08:29;;;;;;;22.97;14.00;;;8.00;1.00;;;;;;5053299;28;20208;-67
2024/04/02 11:11:21;;;;;;;24.40;13.93;;;8.00;10.30;;;;;;5059112;28;20223;-66
2024/04/02 11:14:07;;;;;;;17.87;11.00;;;8.00;38.70;;;;;;5060172;28;20201;-66
2024/04/02 11:16:55;;;;;;;24.87;15.43;;;8.10;56.70;;;;;;5059575;28;20573;-66
2024/04/02 11:19:41;;;;;;;24.43;15.30;;;8.10;43.80;;;;;;5062105;28;20220;-67
2024/04/02 11:25:33;;;;;;;23.83;15.87;;;8.20;47.40;;;;;;5066075;28;20197;-65
2024/04/02 11:28:21;;;;;;;22.47;13.27;;;8.20;51.80;;;;;;5063541;28;20210;-66
2024/04/02 11:31:09;;;;;;;25.73;17.73;;;8.20;75.80;;;;;;5062025;28;20586;-66
2024/04/02 11:33:55;;;;;;;30.30;19.30;;;8.20;99.90;;;;;;5070660;28;20255;-66
2024/04/02 11:36:43;;;;;;;31.30;17.00;;;8.20;99.90;;;;;;5057061;28;20199;-66
2024/04/02 11:39:29;;;;;;;22.13;14.43;;;8.30;99.90;;;;;;5063741;28;20220;-66
2024/04/02 11:42:16;;;;;;;21.90;12.20;;;8.40;99.90;;;;;;5061343;28;20229;-66
2024/04/02 11:45:06;;;;;;;24.10;16.07;;;8.40;87.00;;;;;;5053824;28;20212;-66
2024/04/02 11:47:53;;;;;;;24.33;14.63;;;8.40;64.70;;;;;;5062388;28;20215;-66
2024/04/02 11:50:39;;;;;;;23.73;13.70;;;8.40;58.60;;;;;;5062289;28;20227;-66
2024/04/02 11:53:26;;;;;;;10.30;5.73;;;8.50;65.30;;;;;;5051169;28;20818;-66
2024/04/02 11:56:12;;;;;;;23.27;13.23;;;8.50;1.00;;;;;;5052056;28;20211;-66
2024/04/02 12:02:06;;;;;;;24.83;14.17;;;8.70;1.00;;;;;;5051647;28;20192;-66
2024/04/02 12:04:53;;;;;;;17.73;10.70;;;8.60;1.00;;;;;;5051283;28;20228;-66
2024/04/02 12:07:41;;;;;;;19.50;10.53;;;8.80;1.00;;;;;;5056653;28;20194;-66
2024/04/02 12:10:28;;;;;;;13.43;9.90;;;8.90;99.90;;;;;;5057633;28;20224;-66
2024/04/02 12:13:14;;;;;;;8.47;5.87;;;9.00;99.90;;;;;;5061041;28;20206;-66
2024/04/02 12:16:01;;;;;;;13.83;9.37;;;9.00;5.70;;;;;;5066045;28;20289;-66
2024/04/02 12:18:53;;;;;;;12.53;8.63;;;9.10;1.00;;;;;;5069574;28;20210;-66
2024/04/02 12:21:40;;;;;;;14.67;7.97;;;9.30;1.00;;;;;;5069348;28;20210;-66
2024/04/02 12:24:27;;;;;;;10.93;7.57;;;9.30;99.90;;;;;;5051290;28;20208;-66
2024/04/02 12:27:14;;;;;;;11.17;7.80;;;9.40;1.00;;;;;;5053489;28;20235;-67
2024/04/02 12:30:00;;;;;;;14.90;6.70;;;9.50;1.00;;;;;;5067614;28;20222;-66
2024/04/02 12:32:48;;;;;;;8.43;6.00;;;9.40;99.90;;;;;;5059374;28;20207;-66
2024/04/02 12:35:37;;;;;;;11.93;8.00;;;9.50;1.00;;;;;;5057291;28;20224;-66
2024/04/02 12:38:23;;;;;;;12.67;6.07;;;9.50;99.90;;;;;;5055044;28;20591;-66
2024/04/02 12:41:10;;;;;;;11.63;7.37;;;9.70;99.90;;;;;;5056534;28;20225;-67
2024/04/02 12:43:57;;;;;;;10.00;6.60;;;9.90;99.90;;;;;;5059917;28;20207;-66
2024/04/02 12:46:44;;;;;;;7.47;5.40;;;10.10;1.00;;;;;;5056069;28;20207;-66
2024/04/02 12:49:30;;;;;;;13.07;6.50;;;10.00;1.00;;;;;;5055517;28;20203;-66
2024/04/02 12:52:19;;;;;;;9.13;6.57;;;10.00;1.00;;;;;;5051651;28;20205;-67
2024/04/02 12:55:06;;;;;;;11.47;6.73;;;10.00;10.90;;;;;;5050715;28;20668;-67
2024/04/02 12:57:53;;;;;;;10.33;6.77;;;10.10;1.00;;;;;;5049834;28;20642;-67
2024/04/02 13:00:39;;;;;;;7.50;5.73;;;10.20;99.90;;;;;;5052884;28;20201;-67
2024/04/02 13:03:26;;;;;;;8.70;6.27;;;10.40;99.90;;;;;;5050516;28;20212;-67
2024/04/02 13:06:12;;;;;;;8.33;5.93;;;10.40;41.10;;;;;;5050878;28;20213;-67
2024/04/02 13:09:03;;;;;;;9.87;5.30;;;10.40;1.00;;;;;;5052081;28;20233;-66
2024/04/02 13:11:49;;;;;;;6.87;4.53;;;10.40;99.90;;;;;;5056641;28;20258;-66
2024/04/02 13:14:36;;;;;;;7.10;4.70;;;10.50;99.90;;;;;;5050573;28;20286;-67
2024/04/02 13:17:22;;;;;;;12.50;4.50;;;10.60;1.00;;;;;;5055000;28;20199;-67
2024/04/02 13:20:10;;;;;;;6.40;4.10;;;10.60;1.00;;;;;;5068162;28;20275;-68
2024/04/02 13:22:57;;;;;;;7.37;4.50;;;10.50;99.90;;;;;;5048748;28;20223;-67
2024/04/02 13:25:45;;;;;;;12.27;4.43;;;10.60;99.90;;;;;;5067164;28;20652;-67
2024/04/02 13:28:34;;;;;;;8.57;3.93;;;10.70;1.00;;;;;;5067407;28;20233;-67
2024/04/02 13:31:21;;;;;;;7.43;4.17;;;10.50;1.00;;;;;;5077523;28;20262;-67
2024/04/02 13:34:08;;;;;;;5.63;3.80;;;10.40;1.00;;;;;;5049040;28;20250;-67
2024/04/02 13:36:55;;;;;;;6.07;3.50;;;10.40;1.00;;;;;;5070903;28;20197;-67
2024/04/02 13:39:42;;;;;;;3.97;1.07;;;10.30;1.00;;;;;;5055169;28;20324;-67
2024/04/02 13:42:29;;;;;;;6.70;3.23;;;10.30;80.30;;;;;;5058398;28;20201;-67
2024/04/02 13:45:17;;;;;;;6.50;3.13;;;10.20;99.90;;;;;;5048963;28;20339;-67
2024/04/02 13:48:04;;;;;;;9.97;3.00;;;10.10;99.90;;;;;;5061549;28;20223;-66
2024/04/02 13:51:02;;;;;;;7.83;2.70;;;10.10;99.90;;;;;;5048788;28;20224;-67
2024/04/02 13:53:49;;;;;;;8.03;2.90;;;9.70;99.90;;;;;;5059529;28;20661;-67
2024/04/02 13:56:36;;;;;;;6.77;2.70;;;9.00;1.00;;;;;;5063302;28;20232;-67
2024/04/02 13:59:24;;;;;;;6.40;2.73;;;8.40;99.90;;;;;;5051692;28;20690;-67
2024/04/02 14:02:11;;;;;;;6.37;2.30;;;8.20;1.00;;;;;;5063934;28;20220;-67
2024/04/02 14:04:57;;;;;;;5.73;2.50;;;8.00;99.90;;;;;;5053702;28;20236;-67
2024/04/02 14:07:47;;;;;;;4.67;1.57;;;8.30;1.00;;;;;;5053267;28;20925;-67
2024/04/02 14:10:33;;;;;;;2.57;1.67;;;8.70;1.00;;;;;;5066049;28;20303;-67
2024/04/02 14:13:20;;;;;;;2.73;1.50;;;8.90;99.90;;;;;;5054208;28;20200;-67
2024/04/02 14:16:10;;;;;;;2.43;1.20;;;9.80;99.90;;;;;;5056448;28;20604;-67
2024/04/02 14:18:59;;;;;;;3.97;1.70;;;9.90;1.00;;;;;;5064578;28;20204;-67
2024/04/02 14:21:45;;;;;;;5.40;1.83;;;10.50;99.90;;;;;;5065623;28;20207;-67
2024/04/02 14:24:33;;;;;;;5.47;1.70;;;10.80;1.00;;;;;;5062883;28;20197;-67
2024/04/02 14:27:20;;;;;;;7.33;1.87;;;11.10;99.90;;;;;;5056308;28;20217;-67
2024/04/02 14:30:07;;;;;;;3.63;1.67;;;11.00;1.00;;;;;;5067068;28;20230;-67
2024/04/02 14:32:56;;;;;;;4.70;1.97;;;11.20;1.00;;;;;;5070266;28;20283;-66
2024/04/02 14:35:43;;;;;;;5.87;1.90;;;10.90;1.00;;;;;;5053982;28;20663;-67
2024/04/02 14:38:31;;;;;;;6.17;2.20;;;10.40;99.90;;;;;;5055136;28;20213;-67
2024/04/02 14:41:17;;;;;;;4.97;2.50;;;10.50;99.90;;;;;;5053069;28;20224;-67
2024/04/02 14:44:04;;;;;;;6.70;2.80;;;10.50;99.90;;;;;;5051529;28;20239;-67